Stolt Spruce — D5MX8 — position and weather

sailwx.info

Track history (hours):
 
Tides and Currents Weather Stations Pressure Air Temp Water Temp Dewpoint Dewpoint Depression Visibility Wind Speed Wind Dir Waves Ship Positions

Stolt Spruce

Last reported at 2018-Jul-22 05:58 UTC. Time now 2018-Jul-22 12:43 UTC.
Position N 27°50' W 092°38'.

Length 182 m; draft 10 m.

Type: Tanker. MMSI: 636017836.

Date/timePositionNaut miles runAvg speedWind from/ knotsBaromVisibWave heightAir tempDewpointWater temp
2018-Jul-22 05:58N 27°50' W 092°38'2514.5
2018-Jul-22 04:14N 27°49' W 093°06'4315.0
2018-Jul-22 01:21N 27°45' W 093°55'1516.0
2018-Jul-22 00:25N 27°44' W 094°12'715.9
2018-Jul-22 00:00N 27°44' W 094°19'2413.2
2018-Jul-21 22:09N 28°07' W 094°25'315.5
2018-Jul-21 21:56N 28°11' W 094°25'1315.6
2018-Jul-21 21:05N 28°24' W 094°25'415.6
2018-Jul-21 20:51N 28°28' W 094°24'715.4
2018-Jul-21 20:24N 28°35' W 094°24'615.2
2018-Jul-21 19:59N 28°41' W 094°25'715.2
2018-Jul-21 19:30N 28°48' W 094°25'815.1
2018-Jul-21 18:59N 28°56' W 094°26'1014.9
2018-Jul-21 18:20N 29°06' W 094°27'513.2
2018-Jul-21 17:57N 29°10' W 094°30'613.8
2018-Jul-21 17:30N 29°15' W 094°34'612.4
2018-Jul-21 17:00N 29°19' W 094°39'713.4
2018-Jul-21 16:31N 29°21' W 094°47'612.5
2018-Jul-21 16:00N 29°26' W 094°50'611.7
2018-Jul-21 15:30N 29°31' W 094°53'611.5
2018-Jul-21 15:00N 29°36' W 094°57'611.1
2018-Jul-21 14:30N 29°41' W 094°59'7 6.8
2018-Jul-21 13:30N 29°45' W 095°06'0 0.3
2018-Jul-21 13:00N 29°45' W 095°06'0 0.0
2018-Jul-21 06:24N 29°45' W 095°06'0 0.0
2018-Jul-20 04:45N 29°45' W 095°06'0 0.0
2018-Jul-19 17:37N 29°45' W 095°06'0 2.0
2018-Jul-19 17:30N 29°45' W 095°06'2 4.3
2018-Jul-19 17:00N 29°44' W 095°03'3 6.1
2018-Jul-19 16:30N 29°42' W 095°01'5 9.2
2018-Jul-19 16:00N 29°38' W 094°58'611.0
2018-Jul-19 15:30N 29°34' W 094°55'612.1
2018-Jul-19 15:00N 29°28' W 094°51'1110.8
2018-Jul-19 14:00N 29°21' W 094°43'612.8
2018-Jul-19 13:30N 29°18' W 094°36'510.3
2018-Jul-19 13:00N 29°16' W 094°31'1 1.1
2018-Jul-19 12:26N 29°16' W 094°30'0 0.1
2018-Jul-19 11:59N 29°16' W 094°30'0 0.0
2018-Jul-19 11:29N 29°16' W 094°30'0 0.0
2018-Jul-19 10:59N 29°16' W 094°30'0 0.0
2018-Jul-19 10:29N 29°16' W 094°30'0 0.0
2018-Jul-19 09:53N 29°16' W 094°30'0 0.0
2018-Jul-19 09:29N 29°16' W 094°30'0 0.0
2018-Jul-19 08:59N 29°16' W 094°30'0 0.0
2018-Jul-19 08:23N 29°16' W 094°30'0 0.0
2018-Jul-19 07:56N 29°16' W 094°30'0 0.0
2018-Jul-19 07:26N 29°16' W 094°30'0 0.0
2018-Jul-19 06:59N 29°16' W 094°30'0 0.0
2018-Jul-19 06:26N 29°16' W 094°30'0 0.0
2018-Jul-19 05:56N 29°16' W 094°30'0 0.0
2018-Jul-19 05:17N 29°16' W 094°30'0 0.0
2018-Jul-19 04:47N 29°16' W 094°30'0 0.0
2018-Jul-19 04:17N 29°16' W 094°30'0 0.0
2018-Jul-19 02:38N 29°16' W 094°30'0 0.0
2018-Jul-19 02:17N 29°16' W 094°30'0 0.0
2018-Jul-19 01:53N 29°16' W 094°30'0 0.0
2018-Jul-19 01:26N 29°16' W 094°30'0 0.0
2018-Jul-19 00:53N 29°16' W 094°30'0 0.0
2018-Jul-19 00:29N 29°16' W 094°30'0 0.0
2018-Jul-18 23:50N 29°16' W 094°30'0 0.0
2018-Jul-18 23:23N 29°16' W 094°30'0 0.0
2018-Jul-18 22:56N 29°16' W 094°30'0 0.0
2018-Jul-18 22:29N 29°16' W 094°30'0 0.0
2018-Jul-18 21:59N 29°16' W 094°30'0 0.0
2018-Jul-18 21:26N 29°16' W 094°30'0 0.0
2018-Jul-18 20:56N 29°16' W 094°30'0 0.0
2018-Jul-18 20:29N 29°16' W 094°30'0 0.0
2018-Jul-18 19:17N 29°16' W 094°30'0 0.0
2018-Jul-18 18:56N 29°16' W 094°30'0 0.0
2018-Jul-18 17:26N 29°16' W 094°30'0 0.0
2018-Jul-18 14:56N 29°16' W 094°30'0 0.0
2018-Jul-18 14:20N 29°16' W 094°30'0 0.0
2018-Jul-18 13:26N 29°16' W 094°30'0 0.0
2018-Jul-18 12:50N 29°16' W 094°30'0 0.0
2018-Jul-18 12:23N 29°16' W 094°30'0 0.0
2018-Jul-18 11:59N 29°16' W 094°30'0 0.0
2018-Jul-18 11:26N 29°16' W 094°30'1 1.1
2018-Jul-18 10:29N 29°16' W 094°31'510.1
2018-Jul-18 09:59N 29°18' W 094°36'613.1
2018-Jul-18 09:30N 29°21' W 094°43'612.4
2018-Jul-18 09:00N 29°24' W 094°49'612.7
2018-Jul-18 08:30N 29°30' W 094°52'612.1
2018-Jul-18 08:00N 29°35' W 094°56'4 8.7
2018-Jul-18 07:30N 29°37' W 095°00'1 1.9
2018-Jul-18 07:00N 29°37' W 095°01'0 0.0
2018-Jul-18 06:30N 29°37' W 095°01'0 0.0
2018-Jul-18 06:00N 29°37' W 095°01'0 0.0
2018-Jul-18 05:28N 29°37' W 095°01'0 0.0
2018-Jul-18 04:58N 29°37' W 095°01'0 0.0
2018-Jul-18 04:28N 29°37' W 095°01'0 0.0
2018-Jul-18 03:58N 29°37' W 095°01'0 0.0
2018-Jul-18 03:28N 29°37' W 095°01'0 0.0
2018-Jul-18 02:58N 29°37' W 095°01'0 0.0
2018-Jul-18 02:28N 29°37' W 095°01'0 0.0
2018-Jul-18 01:58N 29°37' W 095°01'0 0.0
2018-Jul-18 01:28N 29°37' W 095°01'0 0.0
2018-Jul-18 00:58N 29°37' W 095°01'0 0.0
2018-Jul-18 00:28N 29°37' W 095°01'0 0.0
2018-Jul-17 23:58N 29°37' W 095°01'0 0.0
2018-Jul-17 23:28N 29°37' W 095°01'0 0.0
2018-Jul-17 22:58N 29°37' W 095°01'0 0.0
2018-Jul-17 22:28N 29°37' W 095°01'0 0.0
2018-Jul-17 21:58N 29°37' W 095°01'0 0.0
2018-Jul-17 21:28N 29°37' W 095°01'0 0.0
2018-Jul-17 20:58N 29°37' W 095°01'0 0.0
2018-Jul-17 20:28N 29°37' W 095°01'0 0.0
2018-Jul-17 19:58N 29°37' W 095°01'0 0.0
2018-Jul-17 19:28N 29°37' W 095°01'0 0.0
2018-Jul-17 18:58N 29°37' W 095°01'0 0.0
2018-Jul-17 18:28N 29°37' W 095°01'0 0.0
2018-Jul-17 17:58N 29°37' W 095°01'0 0.0
2018-Jul-17 17:28N 29°37' W 095°01'0 0.0
2018-Jul-17 16:58N 29°37' W 095°01'0 0.0
2018-Jul-17 16:28N 29°37' W 095°01'0 0.0
2018-Jul-17 15:58N 29°37' W 095°01'0 0.0
2018-Jul-17 15:28N 29°37' W 095°01'0 0.0
2018-Jul-17 14:58N 29°37' W 095°01'0 0.0
2018-Jul-17 14:28N 29°37' W 095°01'0 0.0
2018-Jul-17 13:58N 29°37' W 095°01'0 0.0
2018-Jul-17 13:28N 29°37' W 095°01'0 0.0
2018-Jul-17 12:55N 29°37' W 095°01'0 0.0
2018-Jul-17 12:28N 29°37' W 095°01'0 0.0
2018-Jul-17 11:58N 29°37' W 095°01'0 0.0
2018-Jul-17 11:28N 29°37' W 095°01'0 0.0
2018-Jul-17 10:58N 29°37' W 095°01'0 0.0
2018-Jul-17 10:28N 29°37' W 095°01'0 0.0
2018-Jul-17 09:58N 29°37' W 095°01'0 0.0
2018-Jul-17 09:28N 29°37' W 095°01'0 0.0
2018-Jul-17 08:58N 29°37' W 095°01'0 0.0
2018-Jul-17 08:28N 29°37' W 095°01'0 0.0
2018-Jul-17 07:58N 29°37' W 095°01'0 0.0
2018-Jul-17 07:28N 29°37' W 095°01'0 0.0
2018-Jul-17 06:58N 29°37' W 095°01'0 0.0
2018-Jul-17 06:28N 29°37' W 095°01'0 0.0
2018-Jul-17 05:58N 29°37' W 095°01'0 0.0
2018-Jul-17 05:28N 29°37' W 095°01'0 0.0
2018-Jul-17 04:58N 29°37' W 095°01'0 0.0
2018-Jul-17 04:25N 29°37' W 095°01'0 0.0
2018-Jul-17 03:58N 29°37' W 095°01'0 0.0
2018-Jul-17 03:28N 29°37' W 095°01'0 0.0
2018-Jul-17 02:58N 29°37' W 095°01'0 0.0
2018-Jul-17 02:28N 29°37' W 095°01'0 0.0
2018-Jul-17 01:58N 29°37' W 095°01'0 0.0
2018-Jul-17 01:28N 29°37' W 095°01'0 0.0
2018-Jul-17 00:58N 29°37' W 095°01'0 0.0
2018-Jul-17 00:28N 29°37' W 095°01'0 0.0
2018-Jul-16 23:28N 29°37' W 095°01'0 0.0
2018-Jul-16 22:58N 29°37' W 095°01'0 0.0
2018-Jul-16 22:28N 29°37' W 095°01'0 0.0
2018-Jul-16 21:58N 29°37' W 095°01'0 0.0
2018-Jul-16 21:28N 29°37' W 095°01'0 0.0
2018-Jul-16 20:58N 29°37' W 095°01'0 0.0
2018-Jul-16 20:25N 29°37' W 095°01'0 0.0
2018-Jul-16 19:58N 29°37' W 095°01'0 0.0
2018-Jul-16 19:28N 29°37' W 095°01'0 0.0
2018-Jul-16 18:58N 29°37' W 095°01'0 0.0
2018-Jul-16 18:28N 29°37' W 095°01'0 0.0
2018-Jul-16 17:58N 29°37' W 095°01'0 0.0
2018-Jul-16 17:28N 29°37' W 095°01'0 0.0
2018-Jul-16 16:58N 29°37' W 095°01'0 0.0
2018-Jul-16 16:28N 29°37' W 095°01'0 0.0
2018-Jul-16 15:58N 29°37' W 095°01'0 0.0
2018-Jul-16 15:28N 29°37' W 095°01'0 0.0
2018-Jul-16 14:58N 29°37' W 095°01'0 0.0
2018-Jul-16 14:28N 29°37' W 095°01'0 0.0
2018-Jul-16 13:58N 29°37' W 095°01'0 0.0
2018-Jul-16 13:28N 29°37' W 095°01'0 0.0
2018-Jul-16 12:58N 29°37' W 095°01'0 0.0
2018-Jul-16 12:28N 29°37' W 095°01'0 0.0
2018-Jul-16 11:58N 29°37' W 095°01'0 0.0
2018-Jul-16 11:28N 29°37' W 095°01'0 0.0
2018-Jul-16 10:58N 29°37' W 095°01'0 0.0
2018-Jul-16 10:28N 29°37' W 095°01'0 0.0
2018-Jul-16 09:58N 29°37' W 095°01'0 0.0
2018-Jul-16 09:25N 29°37' W 095°01'0 0.0
2018-Jul-16 08:58N 29°37' W 095°01'0 0.0
2018-Jul-16 08:25N 29°37' W 095°01'0 0.0
2018-Jul-16 07:58N 29°37' W 095°01'0 0.0
2018-Jul-16 07:28N 29°37' W 095°01'0 0.0
2018-Jul-16 06:58N 29°37' W 095°01'0 0.0
2018-Jul-16 06:28N 29°37' W 095°01'0 0.0
2018-Jul-16 05:58N 29°37' W 095°01'0 0.0
2018-Jul-16 05:28N 29°37' W 095°01'0 0.0
2018-Jul-16 04:58N 29°37' W 095°01'0 0.0
2018-Jul-16 04:28N 29°37' W 095°01'0 0.0
2018-Jul-16 03:58N 29°37' W 095°01'0 0.0
2018-Jul-16 03:28N 29°37' W 095°01'0 0.0
2018-Jul-16 02:58N 29°37' W 095°01'0 0.0
2018-Jul-16 02:25N 29°37' W 095°01'0 0.0
2018-Jul-16 01:58N 29°37' W 095°01'0 0.0
2018-Jul-16 01:28N 29°37' W 095°01'0 0.0
2018-Jul-16 00:58N 29°37' W 095°01'0 0.0
2018-Jul-16 00:28N 29°37' W 095°01'0 0.0
2018-Jul-15 23:58N 29°37' W 095°01'0 0.0
2018-Jul-15 23:28N 29°37' W 095°01'0 0.0
2018-Jul-15 22:58N 29°37' W 095°01'0 0.0
2018-Jul-15 22:28N 29°37' W 095°01'0 0.0
2018-Jul-15 21:52N 29°37' W 095°01'0 0.0
2018-Jul-15 21:28N 29°37' W 095°01'0 0.0
2018-Jul-15 20:58N 29°37' W 095°01'0 0.0
2018-Jul-15 20:28N 29°37' W 095°01'0 0.0
2018-Jul-15 18:47N 29°37' W 095°01'0 0.0
2018-Jul-15 18:22N 29°37' W 095°01'0 0.0
2018-Jul-15 17:34N 29°37' W 095°01'0 0.0
2018-Jul-15 17:28N 29°37' W 095°01'0 0.0
2018-Jul-15 16:58N 29°37' W 095°01'0 0.0
2018-Jul-15 16:28N 29°37' W 095°01'0 0.0
2018-Jul-15 15:58N 29°37' W 095°01'0 0.0
2018-Jul-15 15:28N 29°37' W 095°01'0 0.0
2018-Jul-15 14:08N 29°37' W 095°01'0 0.0
2018-Jul-15 13:55N 29°37' W 095°01'0 0.0
2018-Jul-15 13:28N 29°37' W 095°01'0 0.0
2018-Jul-15 12:58N 29°37' W 095°01'0 0.1
2018-Jul-15 12:30N 29°37' W 095°01'2 4.8
2018-Jul-15 12:00N 29°37' W 094°58'611.1
2018-Jul-15 11:30N 29°33' W 094°54'612.8
2018-Jul-15 11:00N 29°27' W 094°51'714.4
2018-Jul-15 10:30N 29°21' W 094°47'714.0
2018-Jul-15 10:00N 29°19' W 094°39'5 9.0
2018-Jul-15 09:25N 29°17' W 094°33'1 0.1
2018-Jul-14 23:31N 29°17' W 094°32'0 0.0
2018-Jul-14 14:04N 29°17' W 094°32'0 0.0
2018-Jul-14 00:01N 29°17' W 094°32'0 0.0
2018-Jul-13 23:55N 29°17' W 094°32'0 0.0
2018-Jul-13 07:10N 29°17' W 094°32'0 0.0
2018-Jul-13 00:17N 29°17' W 094°32'0 0.1
2018-Jul-12 23:59N 29°17' W 094°32'0 0.0
2018-Jul-12 23:30N 29°17' W 094°32'0 0.0
2018-Jul-12 22:59N 29°17' W 094°33'0 0.0
2018-Jul-12 22:29N 29°17' W 094°32'0 0.0
2018-Jul-12 22:00N 29°17' W 094°32'0 0.1
2018-Jul-12 21:30N 29°17' W 094°33'0 0.1
2018-Jul-12 21:00N 29°17' W 094°33'0 0.1
2018-Jul-12 20:19N 29°17' W 094°32'0 0.4
2018-Jul-12 19:15N 29°17' W 094°32'1 4.6
2018-Jul-12 18:59N 29°16' W 094°31'610.4
2018-Jul-12 18:26N 29°12' W 094°27'  
Track history (hours):
 
Tides and Currents Weather Stations Pressure Air Temp Water Temp Dewpoint Dewpoint Depression Visibility Wind Speed Wind Dir Waves Ship Positions

Stolt Spruce

Last reported at 2018-Jul-22 05:58 UTC. Time now 2018-Jul-22 12:43 UTC.
Position N 27°50' W 092°38'.

Length 182 m; draft 10 m.

Type: Tanker. MMSI: 636017836.

Date/timePositionNaut miles runAvg speedWind from/ knotsBaromVisibWave heightAir tempDewpointWater temp
2018-Jul-22 05:58N 27°50' W 092°38'2514.5
2018-Jul-22 04:14N 27°49' W 093°06'4315.0
2018-Jul-22 01:21N 27°45' W 093°55'1516.0
2018-Jul-22 00:25N 27°44' W 094°12'715.9
2018-Jul-22 00:00N 27°44' W 094°19'2413.2
2018-Jul-21 22:09N 28°07' W 094°25'315.5
2018-Jul-21 21:56N 28°11' W 094°25'1315.6
2018-Jul-21 21:05N 28°24' W 094°25'415.6
2018-Jul-21 20:51N 28°28' W 094°24'715.4
2018-Jul-21 20:24N 28°35' W 094°24'615.2
2018-Jul-21 19:59N 28°41' W 094°25'715.2
2018-Jul-21 19:30N 28°48' W 094°25'815.1
2018-Jul-21 18:59N 28°56' W 094°26'1014.9
2018-Jul-21 18:20N 29°06' W 094°27'513.2
2018-Jul-21 17:57N 29°10' W 094°30'613.8
2018-Jul-21 17:30N 29°15' W 094°34'612.4
2018-Jul-21 17:00N 29°19' W 094°39'713.4
2018-Jul-21 16:31N 29°21' W 094°47'612.5
2018-Jul-21 16:00N 29°26' W 094°50'611.7
2018-Jul-21 15:30N 29°31' W 094°53'611.5
2018-Jul-21 15:00N 29°36' W 094°57'611.1
2018-Jul-21 14:30N 29°41' W 094°59'7 6.8
2018-Jul-21 13:30N 29°45' W 095°06'0 0.3
2018-Jul-21 13:00N 29°45' W 095°06'0 0.0
2018-Jul-21 06:24N 29°45' W 095°06'0 0.0
2018-Jul-20 04:45N 29°45' W 095°06'0 0.0
2018-Jul-19 17:37N 29°45' W 095°06'0 2.0
2018-Jul-19 17:30N 29°45' W 095°06'2 4.3
2018-Jul-19 17:00N 29°44' W 095°03'3 6.1
2018-Jul-19 16:30N 29°42' W 095°01'5 9.2
2018-Jul-19 16:00N 29°38' W 094°58'611.0
2018-Jul-19 15:30N 29°34' W 094°55'612.1
2018-Jul-19 15:00N 29°28' W 094°51'1110.8
2018-Jul-19 14:00N 29°21' W 094°43'612.8
2018-Jul-19 13:30N 29°18' W 094°36'510.3
2018-Jul-19 13:00N 29°16' W 094°31'1 1.1
2018-Jul-19 12:26N 29°16' W 094°30'0 0.1
2018-Jul-19 11:59N 29°16' W 094°30'0 0.0
2018-Jul-19 11:29N 29°16' W 094°30'0 0.0
2018-Jul-19 10:59N 29°16' W 094°30'0 0.0
2018-Jul-19 10:29N 29°16' W 094°30'0 0.0
2018-Jul-19 09:53N 29°16' W 094°30'0 0.0
2018-Jul-19 09:29N 29°16' W 094°30'0 0.0
2018-Jul-19 08:59N 29°16' W 094°30'0 0.0
2018-Jul-19 08:23N 29°16' W 094°30'0 0.0
2018-Jul-19 07:56N 29°16' W 094°30'0 0.0
2018-Jul-19 07:26N 29°16' W 094°30'0 0.0
2018-Jul-19 06:59N 29°16' W 094°30'0 0.0
2018-Jul-19 06:26N 29°16' W 094°30'0 0.0
2018-Jul-19 05:56N 29°16' W 094°30'0 0.0
2018-Jul-19 05:17N 29°16' W 094°30'0 0.0
2018-Jul-19 04:47N 29°16' W 094°30'0 0.0
2018-Jul-19 04:17N 29°16' W 094°30'0 0.0
2018-Jul-19 02:38N 29°16' W 094°30'0 0.0
2018-Jul-19 02:17N 29°16' W 094°30'0 0.0
2018-Jul-19 01:53N 29°16' W 094°30'0 0.0
2018-Jul-19 01:26N 29°16' W 094°30'0 0.0
2018-Jul-19 00:53N 29°16' W 094°30'0 0.0
2018-Jul-19 00:29N 29°16' W 094°30'0 0.0
2018-Jul-18 23:50N 29°16' W 094°30'0 0.0
2018-Jul-18 23:23N 29°16' W 094°30'0 0.0
2018-Jul-18 22:56N 29°16' W 094°30'0 0.0
2018-Jul-18 22:29N 29°16' W 094°30'0 0.0
2018-Jul-18 21:59N 29°16' W 094°30'0 0.0
2018-Jul-18 21:26N 29°16' W 094°30'0 0.0
2018-Jul-18 20:56N 29°16' W 094°30'0 0.0
2018-Jul-18 20:29N 29°16' W 094°30'0 0.0
2018-Jul-18 19:17N 29°16' W 094°30'0 0.0
2018-Jul-18 18:56N 29°16' W 094°30'0 0.0
2018-Jul-18 17:26N 29°16' W 094°30'0 0.0
2018-Jul-18 14:56N 29°16' W 094°30'0 0.0
2018-Jul-18 14:20N 29°16' W 094°30'0 0.0
2018-Jul-18 13:26N 29°16' W 094°30'0 0.0
2018-Jul-18 12:50N 29°16' W 094°30'0 0.0
2018-Jul-18 12:23N 29°16' W 094°30'0 0.0
2018-Jul-18 11:59N 29°16' W 094°30'0 0.0
2018-Jul-18 11:26N 29°16' W 094°30'1 1.1
2018-Jul-18 10:29N 29°16' W 094°31'510.1
2018-Jul-18 09:59N 29°18' W 094°36'613.1
2018-Jul-18 09:30N 29°21' W 094°43'612.4
2018-Jul-18 09:00N 29°24' W 094°49'612.7
2018-Jul-18 08:30N 29°30' W 094°52'612.1
2018-Jul-18 08:00N 29°35' W 094°56'4 8.7
2018-Jul-18 07:30N 29°37' W 095°00'1 1.9
2018-Jul-18 07:00N 29°37' W 095°01'0 0.0
2018-Jul-18 06:30N 29°37' W 095°01'0 0.0
2018-Jul-18 06:00N 29°37' W 095°01'0 0.0
2018-Jul-18 05:28N 29°37' W 095°01'0 0.0
2018-Jul-18 04:58N 29°37' W 095°01'0 0.0
2018-Jul-18 04:28N 29°37' W 095°01'0 0.0
2018-Jul-18 03:58N 29°37' W 095°01'0 0.0
2018-Jul-18 03:28N 29°37' W 095°01'0 0.0
2018-Jul-18 02:58N 29°37' W 095°01'0 0.0
2018-Jul-18 02:28N 29°37' W 095°01'0 0.0
2018-Jul-18 01:58N 29°37' W 095°01'0 0.0
2018-Jul-18 01:28N 29°37' W 095°01'0 0.0
2018-Jul-18 00:58N 29°37' W 095°01'0 0.0
2018-Jul-18 00:28N 29°37' W 095°01'0 0.0
2018-Jul-17 23:58N 29°37' W 095°01'0 0.0
2018-Jul-17 23:28N 29°37' W 095°01'0 0.0
2018-Jul-17 22:58N 29°37' W 095°01'0 0.0
2018-Jul-17 22:28N 29°37' W 095°01'0 0.0
2018-Jul-17 21:58N 29°37' W 095°01'0 0.0
2018-Jul-17 21:28N 29°37' W 095°01'0 0.0
2018-Jul-17 20:58N 29°37' W 095°01'0 0.0
2018-Jul-17 20:28N 29°37' W 095°01'0 0.0
2018-Jul-17 19:58N 29°37' W 095°01'0 0.0
2018-Jul-17 19:28N 29°37' W 095°01'0 0.0
2018-Jul-17 18:58N 29°37' W 095°01'0 0.0
2018-Jul-17 18:28N 29°37' W 095°01'0 0.0
2018-Jul-17 17:58N 29°37' W 095°01'0 0.0
2018-Jul-17 17:28N 29°37' W 095°01'0 0.0
2018-Jul-17 16:58N 29°37' W 095°01'0 0.0
2018-Jul-17 16:28N 29°37' W 095°01'0 0.0
2018-Jul-17 15:58N 29°37' W 095°01'0 0.0
2018-Jul-17 15:28N 29°37' W 095°01'0 0.0
2018-Jul-17 14:58N 29°37' W 095°01'0 0.0
2018-Jul-17 14:28N 29°37' W 095°01'0 0.0
2018-Jul-17 13:58N 29°37' W 095°01'0 0.0
2018-Jul-17 13:28N 29°37' W 095°01'0 0.0
2018-Jul-17 12:55N 29°37' W 095°01'0 0.0
2018-Jul-17 12:28N 29°37' W 095°01'0 0.0
2018-Jul-17 11:58N 29°37' W 095°01'0 0.0
2018-Jul-17 11:28N 29°37' W 095°01'0 0.0
2018-Jul-17 10:58N 29°37' W 095°01'0 0.0
2018-Jul-17 10:28N 29°37' W 095°01'0 0.0
2018-Jul-17 09:58N 29°37' W 095°01'0 0.0
2018-Jul-17 09:28N 29°37' W 095°01'0 0.0
2018-Jul-17 08:58N 29°37' W 095°01'0 0.0
2018-Jul-17 08:28N 29°37' W 095°01'0 0.0
2018-Jul-17 07:58N 29°37' W 095°01'0 0.0
2018-Jul-17 07:28N 29°37' W 095°01'0 0.0
2018-Jul-17 06:58N 29°37' W 095°01'0 0.0
2018-Jul-17 06:28N 29°37' W 095°01'0 0.0
2018-Jul-17 05:58N 29°37' W 095°01'0 0.0
2018-Jul-17 05:28N 29°37' W 095°01'0 0.0
2018-Jul-17 04:58N 29°37' W 095°01'0 0.0
2018-Jul-17 04:25N 29°37' W 095°01'0 0.0
2018-Jul-17 03:58N 29°37' W 095°01'0 0.0
2018-Jul-17 03:28N 29°37' W 095°01'0 0.0
2018-Jul-17 02:58N 29°37' W 095°01'0 0.0
2018-Jul-17 02:28N 29°37' W 095°01'0 0.0
2018-Jul-17 01:58N 29°37' W 095°01'0 0.0
2018-Jul-17 01:28N 29°37' W 095°01'0 0.0
2018-Jul-17 00:58N 29°37' W 095°01'0 0.0
2018-Jul-17 00:28N 29°37' W 095°01'0 0.0
2018-Jul-16 23:28N 29°37' W 095°01'0 0.0
2018-Jul-16 22:58N 29°37' W 095°01'0 0.0
2018-Jul-16 22:28N 29°37' W 095°01'0 0.0
2018-Jul-16 21:58N 29°37' W 095°01'0 0.0
2018-Jul-16 21:28N 29°37' W 095°01'0 0.0
2018-Jul-16 20:58N 29°37' W 095°01'0 0.0
2018-Jul-16 20:25N 29°37' W 095°01'0 0.0
2018-Jul-16 19:58N 29°37' W 095°01'0 0.0
2018-Jul-16 19:28N 29°37' W 095°01'0 0.0
2018-Jul-16 18:58N 29°37' W 095°01'0 0.0
2018-Jul-16 18:28N 29°37' W 095°01'0 0.0
2018-Jul-16 17:58N 29°37' W 095°01'0 0.0
2018-Jul-16 17:28N 29°37' W 095°01'0 0.0
2018-Jul-16 16:58N 29°37' W 095°01'0 0.0
2018-Jul-16 16:28N 29°37' W 095°01'0 0.0
2018-Jul-16 15:58N 29°37' W 095°01'0 0.0
2018-Jul-16 15:28N 29°37' W 095°01'0 0.0
2018-Jul-16 14:58N 29°37' W 095°01'0 0.0
2018-Jul-16 14:28N 29°37' W 095°01'0 0.0
2018-Jul-16 13:58N 29°37' W 095°01'0 0.0
2018-Jul-16 13:28N 29°37' W 095°01'0 0.0
2018-Jul-16 12:58N 29°37' W 095°01'0 0.0
2018-Jul-16 12:28N 29°37' W 095°01'0 0.0
2018-Jul-16 11:58N 29°37' W 095°01'0 0.0
2018-Jul-16 11:28N 29°37' W 095°01'0 0.0
2018-Jul-16 10:58N 29°37' W 095°01'0 0.0
2018-Jul-16 10:28N 29°37' W 095°01'0 0.0
2018-Jul-16 09:58N 29°37' W 095°01'0 0.0
2018-Jul-16 09:25N 29°37' W 095°01'0 0.0
2018-Jul-16 08:58N 29°37' W 095°01'0 0.0
2018-Jul-16 08:25N 29°37' W 095°01'0 0.0
2018-Jul-16 07:58N 29°37' W 095°01'0 0.0
2018-Jul-16 07:28N 29°37' W 095°01'0 0.0
2018-Jul-16 06:58N 29°37' W 095°01'0 0.0
2018-Jul-16 06:28N 29°37' W 095°01'0 0.0
2018-Jul-16 05:58N 29°37' W 095°01'0 0.0
2018-Jul-16 05:28N 29°37' W 095°01'0 0.0
2018-Jul-16 04:58N 29°37' W 095°01'0 0.0
2018-Jul-16 04:28N 29°37' W 095°01'0 0.0
2018-Jul-16 03:58N 29°37' W 095°01'0 0.0
2018-Jul-16 03:28N 29°37' W 095°01'0 0.0
2018-Jul-16 02:58N 29°37' W 095°01'0 0.0
2018-Jul-16 02:25N 29°37' W 095°01'0 0.0
2018-Jul-16 01:58N 29°37' W 095°01'0 0.0
2018-Jul-16 01:28N 29°37' W 095°01'0 0.0
2018-Jul-16 00:58N 29°37' W 095°01'0 0.0
2018-Jul-16 00:28N 29°37' W 095°01'0 0.0
2018-Jul-15 23:58N 29°37' W 095°01'0 0.0
2018-Jul-15 23:28N 29°37' W 095°01'0 0.0
2018-Jul-15 22:58N 29°37' W 095°01'0 0.0
2018-Jul-15 22:28N 29°37' W 095°01'0 0.0
2018-Jul-15 21:52N 29°37' W 095°01'0 0.0
2018-Jul-15 21:28N 29°37' W 095°01'0 0.0
2018-Jul-15 20:58N 29°37' W 095°01'0 0.0
2018-Jul-15 20:28N 29°37' W 095°01'0 0.0
2018-Jul-15 18:47N 29°37' W 095°01'0 0.0
2018-Jul-15 18:22N 29°37' W 095°01'0 0.0
2018-Jul-15 17:34N 29°37' W 095°01'0 0.0
2018-Jul-15 17:28N 29°37' W 095°01'0 0.0
2018-Jul-15 16:58N 29°37' W 095°01'0 0.0
2018-Jul-15 16:28N 29°37' W 095°01'0 0.0
2018-Jul-15 15:58N 29°37' W 095°01'0 0.0
2018-Jul-15 15:28N 29°37' W 095°01'0 0.0
2018-Jul-15 14:08N 29°37' W 095°01'0 0.0
2018-Jul-15 13:55N 29°37' W 095°01'0 0.0
2018-Jul-15 13:28N 29°37' W 095°01'0 0.0
2018-Jul-15 12:58N 29°37' W 095°01'0 0.1
2018-Jul-15 12:30N 29°37' W 095°01'2 4.8
2018-Jul-15 12:00N 29°37' W 094°58'611.1
2018-Jul-15 11:30N 29°33' W 094°54'612.8
2018-Jul-15 11:00N 29°27' W 094°51'714.4
2018-Jul-15 10:30N 29°21' W 094°47'714.0
2018-Jul-15 10:00N 29°19' W 094°39'5 9.0
2018-Jul-15 09:25N 29°17' W 094°33'1 0.1
2018-Jul-14 23:31N 29°17' W 094°32'0 0.0
2018-Jul-14 14:04N 29°17' W 094°32'0 0.0
2018-Jul-14 00:01N 29°17' W 094°32'0 0.0
2018-Jul-13 23:55N 29°17' W 094°32'0 0.0
2018-Jul-13 07:10N 29°17' W 094°32'0 0.0
2018-Jul-13 00:17N 29°17' W 094°32'0 0.1
2018-Jul-12 23:59N 29°17' W 094°32'0 0.0
2018-Jul-12 23:30N 29°17' W 094°32'0 0.0
2018-Jul-12 22:59N 29°17' W 094°33'0 0.0
2018-Jul-12 22:29N 29°17' W 094°32'0 0.0
2018-Jul-12 22:00N 29°17' W 094°32'0 0.1
2018-Jul-12 21:30N 29°17' W 094°33'0 0.1
2018-Jul-12 21:00N 29°17' W 094°33'0 0.1
2018-Jul-12 20:19N 29°17' W 094°32'0 0.4
2018-Jul-12 19:15N 29°17' W 094°32'1 4.6
2018-Jul-12 18:59N 29°16' W 094°31'610.4
2018-Jul-12 18:26N 29°12' W 094°27'  

Dump ship's entire track history